< < Back
Terminal Aerodrome Forecast


Current Version              Previous Versions:   1  2  3  4  5  6  7  8  9  

Terminal Aerodrome Forecast

875
FTUS44 KMRX 262052 AAA
TAFCHA
TAF AMD
KCHA 262052Z 2621/2718 33010KT P6SM BKN035
     FM270100 36006KT P6SM SCT035
     FM271400 01012KT P6SM FEW040 BKN200=

Latest METAR

059
SAUS80 KWBC 262100
MTRCHA
METAR KCHA 262053Z 33015KT 10SM BKN040 BKN048 19/11 A2974 RMK AO2 SLP066
T01940111 53007


USA.gov is the U.S. government's official web portal to all federal, state and local government web resources and services.